Allison, Iowa
Current Conditions -  °F | °C
As of 2:15 PM on Monday 26 Jan 2015 (Local Time) from KCCY Reporting Station
Broken Clouds Broken Clouds  
Wind Chill: 35°   Ceiling: 3400
Heat Index: 43°   Visibility: 10mi
Dew Point: 37°   Wind: 18mph
Humidity: 81%   Direction: 310°NW
Pressure: 29.75"   Gusts: NA
Location:  42.75°N, 92.8°W
Report Text: KCCY 262015Z AUTO 31016KT 10SM FEW019 BKN034 06/03 A2975 RMK AO2
Loading
Personal Weather Stations






























Interactive Weather Map New forecast layout! Learn more

10-Day Weather Forecast

Advertisements
Track Severe Weather on mobile